sensor_id;sensor_type;location;lat;lon;timestamp;pressure;altitude;pressure_sealevel;temperature;humidity
67842;BME280;54642;59.126;37.876;2022-11-09T00:02:23;99233.03;;;7.48;85.26
67842;BME280;54642;59.126;37.876;2022-11-09T00:04:48;99221.88;;;7.42;85.08
67842;BME280;54642;59.126;37.876;2022-11-09T00:07:14;99241.56;;;7.56;85.25
67842;BME280;54642;59.126;37.876;2022-11-09T00:09:40;99243.28;;;7.55;84.89
67842;BME280;54642;59.126;37.876;2022-11-09T00:12:06;99243.31;;;7.52;85.07
67842;BME280;54642;59.126;37.876;2022-11-09T00:14:33;99239.88;;;7.55;85.13
67842;BME280;54642;59.126;37.876;2022-11-09T00:17:00;99218.41;;;7.48;85.07
67842;BME280;54642;59.126;37.876;2022-11-09T00:19:26;99241.56;;;7.60;84.77
67842;BME280;54642;59.126;37.876;2022-11-09T00:21:52;99238.97;;;7.57;85.03
67842;BME280;54642;59.126;37.876;2022-11-09T00:24:18;99238.13;;;7.58;84.92
67842;BME280;54642;59.126;37.876;2022-11-09T00:26:44;99234.72;;;7.55;85.04
67842;BME280;54642;59.126;37.876;2022-11-09T00:29:10;99230.47;;;7.44;85.01
67842;BME280;54642;59.126;37.876;2022-11-09T00:31:35;99225.31;;;7.43;85.02
67842;BME280;54642;59.126;37.876;2022-11-09T00:34:02;99245.03;;;7.53;84.97
67842;BME280;54642;59.126;37.876;2022-11-09T00:36:28;99227.91;;;7.43;84.91
67842;BME280;54642;59.126;37.876;2022-11-09T00:38:58;99224.47;;;7.44;84.95
67842;BME280;54642;59.126;37.876;2022-11-09T00:41:25;99257.03;;;7.57;84.78
67842;BME280;54642;59.126;37.876;2022-11-09T00:43:51;99229.56;;;7.49;84.73
67842;BME280;54642;59.126;37.876;2022-11-09T00:46:18;99250.97;;;7.63;84.82
67842;BME280;54642;59.126;37.876;2022-11-09T00:48:45;99232.13;;;7.55;84.95
67842;BME280;54642;59.126;37.876;2022-11-09T00:51:11;99250.13;;;7.59;84.59
67842;BME280;54642;59.126;37.876;2022-11-09T00:53:37;99245.03;;;7.55;84.73
67842;BME280;54642;59.126;37.876;2022-11-09T00:56:04;99271.59;;;7.64;84.64
67842;BME280;54642;59.126;37.876;2022-11-09T00:58:34;99260.44;;;7.59;84.74
67842;BME280;54642;59.126;37.876;2022-11-09T01:01:08;99268.16;;;7.66;84.74
67842;BME280;54642;59.126;37.876;2022-11-09T01:03:40;99253.63;;;7.52;84.62
67842;BME280;54642;59.126;37.876;2022-11-09T01:06:06;99272.50;;;7.60;84.71
67842;BME280;54642;59.126;37.876;2022-11-09T01:08:33;99256.25;;;7.48;84.68
67842;BME280;54642;59.126;37.876;2022-11-09T01:11:07;99278.50;;;7.56;84.50
67842;BME280;54642;59.126;37.876;2022-11-09T01:13:34;99255.38;;;7.45;84.56
67842;BME280;54642;59.126;37.876;2022-11-09T01:16:04;99257.09;;;7.43;84.50
67842;BME280;54642;59.126;37.876;2022-11-09T01:18:33;99284.50;;;7.61;84.51
67842;BME280;54642;59.126;37.876;2022-11-09T01:21:01;99275.91;;;7.62;84.48
67842;BME280;54642;59.126;37.876;2022-11-09T01:23:30;99259.66;;;7.51;84.35
67842;BME280;54642;59.126;37.876;2022-11-09T01:26:03;99288.81;;;7.61;84.41
67842;BME280;54642;59.126;37.876;2022-11-09T01:28:29;99285.38;;;7.60;84.22
67842;BME280;54642;59.126;37.876;2022-11-09T01:31:00;99287.97;;;7.59;84.25
67842;BME280;54642;59.126;37.876;2022-11-09T01:33:27;99290.53;;;7.59;84.14
67842;BME280;54642;59.126;37.876;2022-11-09T01:35:53;99294.88;;;7.55;84.10
67842;BME280;54642;59.126;37.876;2022-11-09T01:38:19;99293.13;;;7.56;84.25
67842;BME280;54642;59.126;37.876;2022-11-09T01:40:45;99294.84;;;7.58;84.26
67842;BME280;54642;59.126;37.876;2022-11-09T01:43:16;99299.13;;;7.56;84.28
67842;BME280;54642;59.126;37.876;2022-11-09T01:45:55;99278.59;;;7.39;84.23
67842;BME280;54642;59.126;37.876;2022-11-09T01:51:34;99311.22;;;7.48;84.28
67842;BME280;54642;59.126;37.876;2022-11-09T01:54:11;99307.81;;;7.46;84.32
67842;BME280;54642;59.126;37.876;2022-11-09T01:56:41;99289.81;;;7.34;84.03
67842;BME280;54642;59.126;37.876;2022-11-09T01:59:11;99308.66;;;7.45;84.13
67842;BME280;54642;59.126;37.876;2022-11-09T02:01:41;99315.53;;;7.44;83.91
67842;BME280;54642;59.126;37.876;2022-11-09T02:04:12;99298.38;;;7.34;84.13
67842;BME280;54642;59.126;37.876;2022-11-09T02:06:40;99322.38;;;7.47;84.43
67842;BME280;54642;59.126;37.876;2022-11-09T02:09:22;99325.84;;;7.43;84.22
67842;BME280;54642;59.126;37.876;2022-11-09T02:11:50;99317.22;;;7.45;84.32
67842;BME280;54642;59.126;37.876;2022-11-09T02:14:16;99328.38;;;7.58;84.18
67842;BME280;54642;59.126;37.876;2022-11-09T02:16:45;99321.50;;;7.57;84.04
67842;BME280;54642;59.126;37.876;2022-11-09T02:19:12;99329.22;;;7.60;84.06
67842;BME280;54642;59.126;37.876;2022-11-09T02:21:38;99331.81;;;7.53;83.99
67842;BME280;54642;59.126;37.876;2022-11-09T02:24:05;99327.53;;;7.53;84.00
67842;BME280;54642;59.126;37.876;2022-11-09T02:26:39;99331.81;;;7.56;84.17
67842;BME280;54642;59.126;37.876;2022-11-09T02:29:12;99320.69;;;7.46;84.08
67842;BME280;54642;59.126;37.876;2022-11-09T02:31:43;99339.53;;;7.56;84.20
67842;BME280;54642;59.126;37.876;2022-11-09T02:34:14;99332.66;;;7.56;84.06
67842;BME280;54642;59.126;37.876;2022-11-09T02:36:41;99321.53;;;7.45;84.07
67842;BME280;54642;59.126;37.876;2022-11-09T02:39:14;99302.66;;;7.40;84.00
67842;BME280;54642;59.126;37.876;2022-11-09T02:41:50;99324.13;;;7.51;84.09
67842;BME280;54642;59.126;37.876;2022-11-09T02:44:18;99338.66;;;7.61;83.92
67842;BME280;54642;59.126;37.876;2022-11-09T02:46:44;99339.53;;;7.60;83.90
67842;BME280;54642;59.126;37.876;2022-11-09T02:49:10;99328.38;;;7.51;83.77
67842;BME280;54642;59.126;37.876;2022-11-09T02:51:36;99319.81;;;7.50;84.13
67842;BME280;54642;59.126;37.876;2022-11-09T02:54:02;99341.22;;;7.60;83.97
67842;BME280;54642;59.126;37.876;2022-11-09T02:56:28;99343.81;;;7.64;84.06
67842;BME280;54642;59.126;37.876;2022-11-09T02:58:54;99341.22;;;7.68;83.93
67842;BME280;54642;59.126;37.876;2022-11-09T03:01:21;99318.91;;;7.56;83.91
67842;BME280;54642;59.126;37.876;2022-11-09T03:03:47;99338.63;;;7.68;83.74
67842;BME280;54642;59.126;37.876;2022-11-09T03:06:13;99336.03;;;7.71;83.65
67842;BME280;54642;59.126;37.876;2022-11-09T03:08:42;99337.72;;;7.78;83.57
67842;BME280;54642;59.126;37.876;2022-11-09T03:11:09;99324.00;;;7.73;83.55
67842;BME280;54642;59.126;37.876;2022-11-09T03:13:35;99337.69;;;7.86;83.36
67842;BME280;54642;59.126;37.876;2022-11-09T03:16:06;99311.97;;;7.69;83.52
67842;BME280;54642;59.126;37.876;2022-11-09T03:18:36;99346.28;;;7.89;83.37
67842;BME280;54642;59.126;37.876;2022-11-09T03:21:03;99334.22;;;7.87;83.36
67842;BME280;54642;59.126;37.876;2022-11-09T03:23:29;99312.84;;;7.66;83.17
67842;BME280;54642;59.126;37.876;2022-11-09T03:25:56;99342.00;;;7.77;83.49
67842;BME280;54642;59.126;37.876;2022-11-09T03:28:22;99339.44;;;7.77;83.29
67842;BME280;54642;59.126;37.876;2022-11-09T03:30:50;99339.50;;;7.67;83.46
67842;BME280;54642;59.126;37.876;2022-11-09T03:33:16;99348.06;;;7.72;83.42
67842;BME280;54642;59.126;37.876;2022-11-09T03:35:42;99348.94;;;7.69;83.36
67842;BME280;54642;59.126;37.876;2022-11-09T03:38:09;99352.38;;;7.68;83.54
67842;BME280;54642;59.126;37.876;2022-11-09T03:40:35;99350.69;;;7.61;83.67
67842;BME280;54642;59.126;37.876;2022-11-09T03:43:01;99359.28;;;7.63;83.46
67842;BME280;54642;59.126;37.876;2022-11-09T03:45:27;99361.84;;;7.61;83.59
67842;BME280;54642;59.126;37.876;2022-11-09T03:47:56;99353.31;;;7.53;83.77
67842;BME280;54642;59.126;37.876;2022-11-09T03:50:34;99359.31;;;7.49;83.69
67842;BME280;54642;59.126;37.876;2022-11-09T03:53:01;99363.63;;;7.45;83.65
67842;BME280;54642;59.126;37.876;2022-11-09T03:55:27;99352.50;;;7.39;83.61
67842;BME280;54642;59.126;37.876;2022-11-09T03:57:54;99367.94;;;7.50;83.71
67842;BME280;54642;59.126;37.876;2022-11-09T04:00:21;99364.47;;;7.49;83.53
67842;BME280;54642;59.126;37.876;2022-11-09T04:02:48;99340.47;;;7.35;83.30
67842;BME280;54642;59.126;37.876;2022-11-09T04:05:15;99370.53;;;7.48;83.47
67842;BME280;54642;59.126;37.876;2022-11-09T04:07:49;99369.66;;;7.38;83.48
67842;BME280;54642;59.126;37.876;2022-11-09T04:10:16;99361.13;;;7.32;83.59
67842;BME280;54642;59.126;37.876;2022-11-09T04:12:41;99373.97;;;7.35;83.55
67842;BME280;54642;59.126;37.876;2022-11-09T04:15:08;99380.88;;;7.39;83.82
67842;BME280;54642;59.126;37.876;2022-11-09T04:17:33;99376.59;;;7.32;83.73
67842;BME280;54642;59.126;37.876;2022-11-09T04:19:59;99396.34;;;7.39;83.62
67842;BME280;54642;59.126;37.876;2022-11-09T04:22:26;99389.44;;;7.33;83.58
67842;BME280;54642;59.126;37.876;2022-11-09T04:24:52;99407.50;;;7.38;83.69
67842;BME280;54642;59.126;37.876;2022-11-09T04:27:18;99409.22;;;7.39;83.77
67842;BME280;54642;59.126;37.876;2022-11-09T04:29:44;99404.06;;;7.39;83.62
67842;BME280;54642;59.126;37.876;2022-11-09T04:32:10;99416.94;;;7.40;83.53
67842;BME280;54642;59.126;37.876;2022-11-09T04:34:36;99416.06;;;7.41;83.65
67842;BME280;54642;59.126;37.876;2022-11-09T04:37:02;99407.50;;;7.41;83.87
67842;BME280;54642;59.126;37.876;2022-11-09T04:39:28;99411.75;;;7.43;83.62
67842;BME280;54642;59.126;37.876;2022-11-09T04:41:53;99404.91;;;7.38;83.51
67842;BME280;54642;59.126;37.876;2022-11-09T04:44:19;99415.19;;;7.45;83.69
67842;BME280;54642;59.126;37.876;2022-11-09T04:46:45;99422.94;;;7.55;83.56
67842;BME280;54642;59.126;37.876;2022-11-09T04:49:11;99415.19;;;7.50;83.25
67842;BME280;54642;59.126;37.876;2022-11-09T04:51:37;99410.03;;;7.50;83.10
67842;BME280;54642;59.126;37.876;2022-11-09T04:54:03;99420.31;;;7.59;83.04
67842;BME280;54642;59.126;37.876;2022-11-09T04:56:29;99426.31;;;7.60;82.89
67842;BME280;54642;59.126;37.876;2022-11-09T04:58:55;99450.34;;;7.74;82.81
67842;BME280;54642;59.126;37.876;2022-11-09T05:01:20;99451.22;;;7.72;82.79
67842;BME280;54642;59.126;37.876;2022-11-09T05:03:48;99447.81;;;7.67;82.66
67842;BME280;54642;59.126;37.876;2022-11-09T05:06:14;99448.66;;;7.72;82.58
67842;BME280;54642;59.126;37.876;2022-11-09T05:09:04;99426.31;;;7.66;82.71
67842;BME280;54642;59.126;37.876;2022-11-09T05:11:31;99445.19;;;7.76;82.54
67842;BME280;54642;59.126;37.876;2022-11-09T05:13:58;99448.66;;;7.70;82.63
67842;BME280;54642;59.126;37.876;2022-11-09T05:16:24;99454.66;;;7.72;82.72
67842;BME280;54642;59.126;37.876;2022-11-09T05:18:50;99446.91;;;7.71;82.57
67842;BME280;54642;59.126;37.876;2022-11-09T05:21:17;99426.31;;;7.61;82.53
67842;BME280;54642;59.126;37.876;2022-11-09T05:23:43;99412.59;;;7.56;82.50
67842;BME280;54642;59.126;37.876;2022-11-09T05:26:35;99427.16;;;7.68;82.50
67842;BME280;54642;59.126;37.876;2022-11-09T05:29:07;99402.31;;;7.50;82.28
67842;BME280;54642;59.126;37.876;2022-11-09T05:31:34;99452.06;;;7.80;82.40
67842;BME280;54642;59.126;37.876;2022-11-09T05:34:00;99443.50;;;7.70;82.58
67842;BME280;54642;59.126;37.876;2022-11-09T05:36:28;99450.34;;;7.77;82.61
67842;BME280;54642;59.126;37.876;2022-11-09T05:38:56;99458.94;;;7.79;82.48
67842;BME280;54642;59.126;37.876;2022-11-09T05:41:22;99454.66;;;7.77;82.34
67842;BME280;54642;59.126;37.876;2022-11-09T05:43:48;99434.06;;;7.68;82.24
67842;BME280;54642;59.126;37.876;2022-11-09T05:46:16;99460.66;;;7.80;82.05
67842;BME280;54642;59.126;37.876;2022-11-09T05:48:42;99446.06;;;7.76;82.28
67842;BME280;54642;59.126;37.876;2022-11-09T05:51:10;99451.22;;;7.73;81.88
67842;BME280;54642;59.126;37.876;2022-11-09T05:53:37;99470.09;;;7.86;81.93
67842;BME280;54642;59.126;37.876;2022-11-09T05:56:04;99477.84;;;7.88;81.86
67842;BME280;54642;59.126;37.876;2022-11-09T05:58:30;99482.16;;;7.81;81.89
67842;BME280;54642;59.126;37.876;2022-11-09T06:01:05;99486.47;;;7.79;81.94
67842;BME280;54642;59.126;37.876;2022-11-09T06:03:32;99489.88;;;7.78;81.75
67842;BME280;54642;59.126;37.876;2022-11-09T06:06:02;99490.78;;;7.77;81.66
67842;BME280;54642;59.126;37.876;2022-11-09T06:08:28;99481.34;;;7.71;81.62
67842;BME280;54642;59.126;37.876;2022-11-09T06:11:00;99484.75;;;7.73;81.73
67842;BME280;54642;59.126;37.876;2022-11-09T06:13:27;99490.78;;;7.69;81.51
67842;BME280;54642;59.126;37.876;2022-11-09T06:15:57;99497.69;;;7.66;81.57
67842;BME280;54642;59.126;37.876;2022-11-09T06:18:25;99500.22;;;7.72;81.79
67842;BME280;54642;59.126;37.876;2022-11-09T06:20:52;99509.69;;;7.70;81.45
67842;BME280;54642;59.126;37.876;2022-11-09T06:23:19;99513.97;;;7.72;81.47
67842;BME280;54642;59.126;37.876;2022-11-09T06:25:59;99509.69;;;7.67;81.80
67842;BME280;54642;59.126;37.876;2022-11-09T06:28:26;99518.28;;;7.72;81.35
67842;BME280;54642;59.126;37.876;2022-11-09T06:30:55;99494.28;;;7.50;81.43
67842;BME280;54642;59.126;37.876;2022-11-09T06:33:21;99514.88;;;7.53;81.46
67842;BME280;54642;59.126;37.876;2022-11-09T06:35:47;99517.47;;;7.51;81.60
67842;BME280;54642;59.126;37.876;2022-11-09T06:38:13;99520.91;;;7.53;81.77
67842;BME280;54642;59.126;37.876;2022-11-09T06:40:39;99514.88;;;7.57;81.67
67842;BME280;54642;59.126;37.876;2022-11-09T06:43:05;99493.41;;;7.46;81.67
67842;BME280;54642;59.126;37.876;2022-11-09T06:45:31;99526.03;;;7.58;81.60
67842;BME280;54642;59.126;37.876;2022-11-09T06:48:00;99496.00;;;7.48;81.61
67842;BME280;54642;59.126;37.876;2022-11-09T06:50:28;99499.44;;;7.48;81.50
67842;BME280;54642;59.126;37.876;2022-11-09T06:52:58;99511.44;;;7.40;81.49
67842;BME280;54642;59.126;37.876;2022-11-09T06:55:26;99527.75;;;7.53;81.67
67842;BME280;54642;59.126;37.876;2022-11-09T06:57:52;99537.22;;;7.52;81.72
67842;BME280;54642;59.126;37.876;2022-11-09T07:00:18;99539.81;;;7.57;81.58
67842;BME280;54642;59.126;37.876;2022-11-09T07:02:44;99546.69;;;7.55;81.46
67842;BME280;54642;59.126;37.876;2022-11-09T07:05:10;99531.22;;;7.47;81.60
67842;BME280;54642;59.126;37.876;2022-11-09T07:07:36;99518.34;;;7.38;81.61
67842;BME280;54642;59.126;37.876;2022-11-09T07:10:02;99550.97;;;7.62;81.61
67842;BME280;54642;59.126;37.876;2022-11-09T07:12:28;99532.06;;;7.49;81.35
67842;BME280;54642;59.126;37.876;2022-11-09T07:14:54;99541.50;;;7.61;81.56
67842;BME280;54642;59.126;37.876;2022-11-09T07:17:20;99519.16;;;7.49;81.43
67842;BME280;54642;59.126;37.876;2022-11-09T07:19:46;99538.09;;;7.60;81.30
67842;BME280;54642;59.126;37.876;2022-11-09T07:22:12;99552.69;;;7.55;81.29
67842;BME280;54642;59.126;37.876;2022-11-09T07:24:37;99551.81;;;7.58;81.39
67842;BME280;54642;59.126;37.876;2022-11-09T07:27:03;99556.13;;;7.59;81.13
67842;BME280;54642;59.126;37.876;2022-11-09T07:29:29;99556.97;;;7.58;81.21
67842;BME280;54642;59.126;37.876;2022-11-09T07:31:55;99549.28;;;7.53;81.35
67842;BME280;54642;59.126;37.876;2022-11-09T07:34:21;99551.84;;;7.55;81.15
67842;BME280;54642;59.126;37.876;2022-11-09T07:36:47;99552.72;;;7.58;81.32
67842;BME280;54642;59.126;37.876;2022-11-09T07:39:13;99560.41;;;7.60;81.11
67842;BME280;54642;59.126;37.876;2022-11-09T07:41:39;99556.13;;;7.54;81.11
67842;BME280;54642;59.126;37.876;2022-11-09T07:44:05;99559.56;;;7.59;81.04
67842;BME280;54642;59.126;37.876;2022-11-09T07:46:30;99577.63;;;7.62;81.02
67842;BME280;54642;59.126;37.876;2022-11-09T07:48:56;99555.28;;;7.55;81.06
67842;BME280;54642;59.126;37.876;2022-11-09T07:51:22;99562.97;;;7.74;80.78
67842;BME280;54642;59.126;37.876;2022-11-09T07:53:48;99563.84;;;7.71;80.91
67842;BME280;54642;59.126;37.876;2022-11-09T07:56:14;99546.69;;;7.64;80.78
67842;BME280;54642;59.126;37.876;2022-11-09T07:58:40;99557.81;;;7.72;80.75
67842;BME280;54642;59.126;37.876;2022-11-09T08:01:09;99551.81;;;7.67;80.73
67842;BME280;54642;59.126;37.876;2022-11-09T08:03:35;99568.16;;;7.77;80.46
67842;BME280;54642;59.126;37.876;2022-11-09T08:06:01;99538.91;;;7.67;80.55
67842;BME280;54642;59.126;37.876;2022-11-09T08:08:27;99575.00;;;7.93;80.62
67842;BME280;54642;59.126;37.876;2022-11-09T08:10:56;99566.41;;;7.88;80.36
67842;BME280;54642;59.126;37.876;2022-11-09T08:13:22;99566.41;;;7.90;80.33
67842;BME280;54642;59.126;37.876;2022-11-09T08:15:48;99564.66;;;7.90;80.37
67842;BME280;54642;59.126;37.876;2022-11-09T08:18:16;99570.69;;;8.01;80.16
67842;BME280;54642;59.126;37.876;2022-11-09T08:20:42;99572.41;;;7.98;79.95
67842;BME280;54642;59.126;37.876;2022-11-09T08:23:12;99581.00;;;7.98;80.15
67842;BME280;54642;59.126;37.876;2022-11-09T08:25:39;99562.97;;;7.86;79.98
67842;BME280;54642;59.126;37.876;2022-11-09T08:28:05;99575.88;;;7.91;80.03
67842;BME280;54642;59.126;37.876;2022-11-09T08:30:31;99562.97;;;7.83;80.12
67842;BME280;54642;59.126;37.876;2022-11-09T08:32:59;99581.88;;;7.94;80.07
67842;BME280;54642;59.126;37.876;2022-11-09T08:35:26;99578.44;;;7.92;79.96
67842;BME280;54642;59.126;37.876;2022-11-09T08:37:52;99581.88;;;7.90;79.82
67842;BME280;54642;59.126;37.876;2022-11-09T08:40:22;99571.56;;;7.79;79.94
67842;BME280;54642;59.126;37.876;2022-11-09T08:42:49;99580.16;;;7.84;79.91
67842;BME280;54642;59.126;37.876;2022-11-09T08:45:15;99569.00;;;7.74;80.00
67842;BME280;54642;59.126;37.876;2022-11-09T08:47:44;99580.16;;;7.84;79.87
67842;BME280;54642;59.126;37.876;2022-11-09T08:50:11;99578.44;;;7.92;80.04
67842;BME280;54642;59.126;37.876;2022-11-09T08:52:38;99592.19;;;7.94;79.86
67842;BME280;54642;59.126;37.876;2022-11-09T08:55:05;99584.47;;;7.93;79.87
67842;BME280;54642;59.126;37.876;2022-11-09T08:57:31;99582.75;;;7.99;79.82
67842;BME280;54642;59.126;37.876;2022-11-09T08:59:57;99570.69;;;7.95;79.78
67842;BME280;54642;59.126;37.876;2022-11-09T09:02:23;99583.59;;;8.01;79.89
67842;BME280;54642;59.126;37.876;2022-11-09T09:04:49;99529.44;;;7.72;79.95
67842;BME280;54642;59.126;37.876;2022-11-09T09:07:15;99568.09;;;7.95;79.69
67842;BME280;54642;59.126;37.876;2022-11-09T09:09:40;99551.81;;;7.89;79.77
67842;BME280;54642;59.126;37.876;2022-11-09T09:12:08;99576.69;;;7.97;79.65
67842;BME280;54642;59.126;37.876;2022-11-09T09:14:34;99563.81;;;7.87;79.87
67842;BME280;54642;59.126;37.876;2022-11-09T09:17:00;99580.16;;;7.93;79.87
67842;BME280;54642;59.126;37.876;2022-11-09T09:19:26;99563.81;;;7.87;80.07
67842;BME280;54642;59.126;37.876;2022-11-09T09:21:52;99579.28;;;7.99;80.09
67842;BME280;54642;59.126;37.876;2022-11-09T09:24:18;99581.84;;;8.04;79.79
67842;BME280;54642;59.126;37.876;2022-11-09T09:26:44;99580.13;;;8.06;79.99
67842;BME280;54642;59.126;37.876;2022-11-09T09:29:11;99580.13;;;8.02;79.88
67842;BME280;54642;59.126;37.876;2022-11-09T09:31:38;99559.50;;;7.90;79.91
67842;BME280;54642;59.126;37.876;2022-11-09T09:34:04;99574.16;;;7.96;80.08
67842;BME280;54642;59.126;37.876;2022-11-09T09:36:30;99578.44;;;7.98;79.99
67842;BME280;54642;59.126;37.876;2022-11-09T09:38:56;99583.56;;;8.05;80.21
67842;BME280;54642;59.126;37.876;2022-11-09T09:50:28;99585.31;;;7.99;80.09
67842;BME280;54642;59.126;37.876;2022-11-09T09:53:12;99581.84;;;8.04;79.99
67842;BME280;54642;59.126;37.876;2022-11-09T09:55:46;99573.25;;;8.05;79.73
67842;BME280;54642;59.126;37.876;2022-11-09T10:01:10;99579.28;;;8.04;79.90
67842;BME280;54642;59.126;37.876;2022-11-09T10:03:38;99565.56;;;7.91;80.13
67842;BME280;54642;59.126;37.876;2022-11-09T10:15:05;99571.53;;;8.00;80.09
67842;BME280;54642;59.126;37.876;2022-11-09T10:25:24;99579.25;;;8.08;80.07
67842;BME280;54642;59.126;37.876;2022-11-09T10:27:54;99585.28;;;8.10;80.07
67842;BME280;54642;59.126;37.876;2022-11-09T10:30:21;99566.38;;;8.04;80.00
67842;BME280;54642;59.126;37.876;2022-11-09T10:32:58;99587.00;;;8.17;80.16
67842;BME280;54642;59.126;37.876;2022-11-09T10:35:34;99585.25;;;8.13;80.16
67842;BME280;54642;59.126;37.876;2022-11-09T10:38:01;99579.28;;;8.07;80.07
67842;BME280;54642;59.126;37.876;2022-11-09T10:40:32;99594.75;;;8.16;80.20
67842;BME280;54642;59.126;37.876;2022-11-09T10:43:19;99582.72;;;8.09;80.07
67842;BME280;54642;59.126;37.876;2022-11-09T10:46:05;99591.31;;;8.06;80.24
67842;BME280;54642;59.126;37.876;2022-11-09T10:48:51;99586.16;;;7.98;80.42
67842;BME280;54642;59.126;37.876;2022-11-09T10:54:23;99577.56;;;7.93;80.69
67842;BME280;54642;59.126;37.876;2022-11-09T10:57:14;99575.84;;;7.94;80.64
67842;BME280;54642;59.126;37.876;2022-11-09T10:59:59;99550.94;;;7.82;80.59
67842;BME280;54642;59.126;37.876;2022-11-09T11:02:46;99571.56;;;7.91;80.78
67842;BME280;54642;59.126;37.876;2022-11-09T11:05:31;99562.97;;;7.83;80.72
67842;BME280;54642;59.126;37.876;2022-11-09T11:08:22;99559.53;;;7.82;80.71
67842;BME280;54642;59.126;37.876;2022-11-09T11:11:13;99572.41;;;7.93;80.63
67842;BME280;54642;59.126;37.876;2022-11-09T11:14:34;99565.53;;;7.94;80.46
67842;BME280;54642;59.126;37.876;2022-11-09T11:17:27;99562.97;;;7.86;80.78
67842;BME280;54642;59.126;37.876;2022-11-09T11:20:36;99562.13;;;7.86;80.87
67842;BME280;54642;59.126;37.876;2022-11-09T11:23:22;99574.97;;;8.01;81.09
67842;BME280;54642;59.126;37.876;2022-11-09T11:32:24;99557.72;;;8.18;80.76
67842;BME280;54642;59.126;37.876;2022-11-09T11:38:40;99550.84;;;8.16;80.73
67842;BME280;54642;59.126;37.876;2022-11-09T11:41:33;99557.72;;;8.15;80.96
67842;BME280;54642;59.126;37.876;2022-11-09T11:54:05;99564.63;;;8.18;81.06
67842;BME280;54642;59.126;37.876;2022-11-09T12:00:10;99575.81;;;8.12;81.34
67842;BME280;54642;59.126;37.876;2022-11-09T12:06:18;99547.44;;;8.05;81.30
67842;BME280;54642;59.126;37.876;2022-11-09T12:09:20;99562.03;;;8.18;81.37
67842;BME280;54642;59.126;37.876;2022-11-09T12:21:17;99537.88;;;8.33;81.45
67842;BME280;54642;59.126;37.876;2022-11-09T12:24:21;99549.91;;;8.45;81.44
67842;BME280;54642;59.126;37.876;2022-11-09T12:39:37;99543.88;;;8.36;81.18
67842;BME280;54642;59.126;37.876;2022-11-09T12:42:55;99555.09;;;8.35;81.04
67842;BME280;54642;59.126;37.876;2022-11-09T12:45:42;99555.09;;;8.34;81.08
67842;BME280;54642;59.126;37.876;2022-11-09T12:48:29;99534.44;;;8.35;81.05
67842;BME280;54642;59.126;37.876;2022-11-09T12:51:14;99542.13;;;8.51;81.27
67842;BME280;54642;59.126;37.876;2022-11-09T12:54:02;99531.78;;;8.54;80.52
67842;BME280;54642;59.126;37.876;2022-11-09T12:57:01;99524.91;;;8.54;80.83
67842;BME280;54642;59.126;37.876;2022-11-09T12:59:49;99514.63;;;8.45;80.92
67842;BME280;54642;59.126;37.876;2022-11-09T13:02:52;99536.13;;;8.49;80.85
67842;BME280;54642;59.126;37.876;2022-11-09T13:05:38;99530.13;;;8.44;80.97
67842;BME280;54642;59.126;37.876;2022-11-09T13:08:26;99545.59;;;8.44;81.01
67842;BME280;54642;59.126;37.876;2022-11-09T13:11:20;99537.88;;;8.37;80.79
67842;BME280;54642;59.126;37.876;2022-11-09T13:20:38;99528.25;;;8.67;80.78
67842;BME280;54642;59.126;37.876;2022-11-09T13:23:28;99521.41;;;8.66;80.76
67842;BME280;54642;59.126;37.876;2022-11-09T13:29:46;99504.22;;;8.61;80.70
67842;BME280;54642;59.126;37.876;2022-11-09T13:32:31;99519.72;;;8.62;80.50
67842;BME280;54642;59.126;37.876;2022-11-09T13:38:29;99504.22;;;8.59;80.51
67842;BME280;54642;59.126;37.876;2022-11-09T13:44:26;99481.94;;;8.43;80.86
67842;BME280;54642;59.126;37.876;2022-11-09T13:47:32;99506.81;;;8.56;80.91
67842;BME280;54642;59.126;37.876;2022-11-09T13:50:19;99491.38;;;8.47;81.04
67842;BME280;54642;59.126;37.876;2022-11-09T13:53:46;99517.97;;;8.61;81.06
67842;BME280;54642;59.126;37.876;2022-11-09T13:56:39;99498.22;;;8.54;80.87
67842;BME280;54642;59.126;37.876;2022-11-09T13:59:27;99509.34;;;8.67;81.00
67842;BME280;54642;59.126;37.876;2022-11-09T14:02:19;99509.38;;;8.61;81.03
67842;BME280;54642;59.126;37.876;2022-11-09T14:05:04;99514.56;;;8.59;81.19
67842;BME280;54642;59.126;37.876;2022-11-09T14:07:48;99492.22;;;8.49;81.19
67842;BME280;54642;59.126;37.876;2022-11-09T14:14:50;99504.16;;;8.65;81.17
67842;BME280;54642;59.126;37.876;2022-11-09T14:17:39;99500.72;;;8.66;81.08
67842;BME280;54642;59.126;37.876;2022-11-09T14:23:33;99501.69;;;8.51;81.36
67842;BME280;54642;59.126;37.876;2022-11-09T14:26:20;99506.03;;;8.43;81.45
67842;BME280;54642;59.126;37.876;2022-11-09T14:29:31;99501.72;;;8.39;81.73
67842;BME280;54642;59.126;37.876;2022-11-09T14:32:35;99483.69;;;8.28;81.88
67842;BME280;54642;59.126;37.876;2022-11-09T14:35:32;99460.50;;;8.19;81.88
67842;BME280;54642;59.126;37.876;2022-11-09T14:38:24;99476.81;;;8.26;81.96
67842;BME280;54642;59.126;37.876;2022-11-09T14:41:21;99495.66;;;8.42;82.10
67842;BME280;54642;59.126;37.876;2022-11-09T14:44:14;99491.38;;;8.45;82.00
67842;BME280;54642;59.126;37.876;2022-11-09T14:46:59;99494.78;;;8.52;81.94
67842;BME280;54642;59.126;37.876;2022-11-09T14:49:44;99498.22;;;8.52;81.83
67842;BME280;54642;59.126;37.876;2022-11-09T14:52:29;99490.47;;;8.54;81.89
67842;BME280;54642;59.126;37.876;2022-11-09T14:55:16;99478.47;;;8.39;81.99
67842;BME280;54642;59.126;37.876;2022-11-09T14:58:01;99485.38;;;8.43;82.33
67842;BME280;54642;59.126;37.876;2022-11-09T15:01:20;99495.69;;;8.48;82.08
67842;BME280;54642;59.126;37.876;2022-11-09T15:04:14;99461.28;;;8.35;82.43
67842;BME280;54642;59.126;37.876;2022-11-09T15:07:05;99489.63;;;8.52;82.56
67842;BME280;54642;59.126;37.876;2022-11-09T15:10:04;99474.06;;;8.64;82.25
67842;BME280;54642;59.126;37.876;2022-11-09T15:12:52;99496.41;;;8.71;82.13
67842;BME280;54642;59.126;37.876;2022-11-09T15:15:39;99486.97;;;8.64;81.90
67842;BME280;54642;59.126;37.876;2022-11-09T15:18:26;99468.97;;;8.53;82.17